Time;durP1;ratioP1;P1;durP2;ratioP2;P2;SDS_P1;SDS_P2;PMS_P1;PMS_P2;Temp;Humidity;BMP_temperature;BMP_pressure;BME280_temperature;BME280_humidity;BME280_pressure;Samples;Min_cycle;Max_cycle;Signal;HPM_P1;HPM_P2
2021/12/06 00:00:50;;;;;;;27.60;15.95;;;;;;;;;;5079212;28;20396;-68
2021/12/06 00:03:19;;;;;;;24.67;15.27;;;;;;;;;;5081508;28;20049;-68
2021/12/06 00:05:46;;;;;;;28.02;16.20;;;;;;;;;;5079583;28;20504;-69
2021/12/06 00:08:12;;;;;;;28.48;16.90;;;;;;;;;;5080558;28;20048;-68
2021/12/06 00:10:40;;;;;;;25.38;16.15;;;;;;;;;;5080803;28;20048;-68
2021/12/06 00:13:06;;;;;;;25.35;16.45;;;;;;;;;;5079142;28;20047;-68
2021/12/06 00:15:37;;;;;;;26.85;16.38;;;;;;;;;;5078062;28;20198;-69
2021/12/06 00:18:03;;;;;;;30.08;16.70;;;;;;;;;;5082090;28;20047;-68
2021/12/06 00:20:29;;;;;;;27.60;17.17;;;;;;;;;;5079781;28;20044;-68
2021/12/06 00:22:56;;;;;;;27.17;16.80;;;;;;;;;;5079395;28;20048;-68
2021/12/06 00:25:22;;;;;;;26.90;16.58;;;;;;;;;;5080234;28;20628;-68
2021/12/06 00:27:49;;;;;;;28.33;17.30;;;;;;;;;;5078231;28;20048;-68
2021/12/06 00:30:16;;;;;;;27.65;17.42;;;;;;;;;;5077905;28;20048;-68
2021/12/06 00:32:43;;;;;;;29.00;17.10;;;;;;;;;;5079503;28;20056;-68
2021/12/06 00:35:18;;;;;;;26.73;17.20;;;;;;;;;;5078300;28;20044;-69
2021/12/06 00:37:54;;;;;;;34.80;17.95;;;;;;;;;;5078020;28;20054;-69
2021/12/06 00:40:21;;;;;;;28.15;17.10;;;;;;;;;;5077786;28;20059;-68
2021/12/06 00:42:48;;;;;;;28.63;17.67;;;;;;;;;;5078554;28;20044;-69
2021/12/06 00:45:14;;;;;;;32.17;17.65;;;;;;;;;;5082604;28;20054;-68
2021/12/06 00:47:40;;;;;;;28.65;18.75;;;;;;;;;;5067671;28;20081;-69
2021/12/06 00:50:07;;;;;;;32.53;18.27;;;;;;;;;;5082873;28;20096;-69
2021/12/06 00:52:34;;;;;;;30.77;17.73;;;;;;;;;;5082300;28;20051;-68
2021/12/06 00:55:00;;;;;;;33.28;19.00;;;;;;;;;;5085101;28;20080;-68
2021/12/06 00:57:27;;;;;;;29.65;18.17;;;;;;;;;;5081595;28;20051;-68
2021/12/06 00:59:53;;;;;;;31.35;18.98;;;;;;;;;;5082067;28;20466;-68
2021/12/06 01:02:20;;;;;;;35.92;19.67;;;;;;;;;;5085211;28;20052;-68
2021/12/06 01:04:47;;;;;;;35.22;19.10;;;;;;;;;;5083728;28;20846;-69
2021/12/06 01:07:14;;;;;;;34.42;19.85;;;;;;;;;;5082482;28;20047;-68
2021/12/06 01:09:41;;;;;;;31.52;18.10;;;;;;;;;;5066694;28;20062;-69
2021/12/06 01:12:08;;;;;;;32.75;20.77;;;;;;;;;;5083971;28;20075;-69
2021/12/06 01:14:34;;;;;;;30.65;18.40;;;;;;;;;;5082720;28;20052;-68
2021/12/06 01:17:01;;;;;;;34.65;19.40;;;;;;;;;;5083978;28;20059;-68
2021/12/06 01:19:30;;;;;;;34.80;18.55;;;;;;;;;;5083774;28;20499;-68
2021/12/06 01:22:25;;;;;;;36.60;21.50;;;;;;;;;;5081925;28;20408;-68
2021/12/06 01:25:07;;;;;;;37.22;20.05;;;;;;;;;;5083574;28;20051;-68
2021/12/06 01:30:16;;;;;;;37.97;20.20;;;;;;;;;;5082907;28;20068;-69
2021/12/06 01:41:15;;;;;;;37.38;20.77;;;;;;;;;;5081007;28;21223;-68
2021/12/06 01:44:00;;;;;;;36.95;21.30;;;;;;;;;;5081391;28;20059;-68
2021/12/06 01:46:26;;;;;;;39.03;21.20;;;;;;;;;;5083601;28;20048;-68
2021/12/06 01:48:52;;;;;;;39.90;22.05;;;;;;;;;;5082770;28;20078;-68
2021/12/06 01:51:19;;;;;;;44.67;21.92;;;;;;;;;;5082400;28;20048;-68
2021/12/06 01:53:45;;;;;;;45.45;22.63;;;;;;;;;;5081690;28;20056;-69
2021/12/06 01:56:11;;;;;;;43.13;21.70;;;;;;;;;;5081901;28;20548;-68
2021/12/06 01:58:38;;;;;;;46.55;21.90;;;;;;;;;;5081761;28;20047;-69
2021/12/06 02:01:04;;;;;;;42.53;23.02;;;;;;;;;;5082630;28;20436;-68
2021/12/06 02:03:31;;;;;;;41.25;21.27;;;;;;;;;;5085003;28;20059;-69
2021/12/06 02:05:57;;;;;;;41.38;22.10;;;;;;;;;;5080170;28;20050;-68
2021/12/06 02:08:24;;;;;;;41.20;22.08;;;;;;;;;;5080555;28;20052;-68
2021/12/06 02:10:53;;;;;;;43.67;21.70;;;;;;;;;;5079169;28;20048;-69
2021/12/06 02:13:20;;;;;;;44.20;22.83;;;;;;;;;;5082644;28;20044;-69
2021/12/06 02:15:53;;;;;;;44.88;24.20;;;;;;;;;;5080151;28;20074;-69
2021/12/06 02:21:27;;;;;;;42.95;23.13;;;;;;;;;;5082467;28;20059;-70
2021/12/06 02:23:54;;;;;;;45.10;23.23;;;;;;;;;;5076975;28;20052;-69
2021/12/06 02:26:21;;;;;;;47.38;24.95;;;;;;;;;;5079194;28;20055;-69
2021/12/06 02:28:48;;;;;;;50.03;23.63;;;;;;;;;;5078509;28;20048;-69
2021/12/06 02:31:15;;;;;;;47.63;23.83;;;;;;;;;;5079792;28;20059;-69
2021/12/06 02:33:44;;;;;;;50.63;24.55;;;;;;;;;;5079628;28;20048;-69
2021/12/06 02:36:11;;;;;;;45.17;24.52;;;;;;;;;;5081390;28;20048;-69
2021/12/06 02:38:37;;;;;;;47.65;24.70;;;;;;;;;;5079882;28;20045;-69
2021/12/06 02:41:04;;;;;;;54.20;27.35;;;;;;;;;;5076926;28;20058;-69
2021/12/06 02:43:30;;;;;;;49.90;25.25;;;;;;;;;;5078905;28;20044;-69
2021/12/06 02:45:57;;;;;;;49.40;24.35;;;;;;;;;;5078792;28;20214;-70
2021/12/06 02:48:24;;;;;;;46.33;25.00;;;;;;;;;;5079075;28;20059;-70
2021/12/06 02:50:55;;;;;;;49.13;24.25;;;;;;;;;;5079086;28;20054;-70
2021/12/06 02:53:22;;;;;;;50.35;25.15;;;;;;;;;;5081160;28;20082;-70
2021/12/06 02:55:53;;;;;;;55.22;25.17;;;;;;;;;;5078807;28;20070;-69
2021/12/06 02:58:43;;;;;;;47.15;23.55;;;;;;;;;;5078118;28;20047;-69
2021/12/06 03:01:13;;;;;;;52.13;25.67;;;;;;;;;;5079795;28;20063;-69
2021/12/06 03:03:40;;;;;;;50.67;23.45;;;;;;;;;;5077853;28;20040;-69
2021/12/06 03:06:07;;;;;;;51.75;24.55;;;;;;;;;;5078218;28;20047;-69
2021/12/06 03:08:42;;;;;;;57.00;25.17;;;;;;;;;;5081392;28;20048;-70
2021/12/06 03:11:11;;;;;;;54.92;24.70;;;;;;;;;;5081877;28;20043;-70
2021/12/06 03:13:38;;;;;;;51.67;24.83;;;;;;;;;;5080067;28;20051;-70
2021/12/06 03:16:04;;;;;;;53.60;26.58;;;;;;;;;;5079966;28;20299;-71
2021/12/06 03:18:31;;;;;;;55.25;25.52;;;;;;;;;;5080087;28;20047;-70
2021/12/06 03:20:57;;;;;;;56.53;25.40;;;;;;;;;;5079629;28;20044;-69
2021/12/06 03:23:24;;;;;;;60.75;26.90;;;;;;;;;;5080177;28;20055;-69
2021/12/06 03:25:50;;;;;;;59.60;25.80;;;;;;;;;;5081169;28;20055;-70
2021/12/06 03:28:16;;;;;;;54.40;25.95;;;;;;;;;;5081068;28;20097;-70
2021/12/06 03:30:43;;;;;;;51.10;24.77;;;;;;;;;;5079562;28;20056;-70
2021/12/06 03:33:09;;;;;;;49.50;24.52;;;;;;;;;;5082172;28;20056;-70
2021/12/06 03:35:37;;;;;;;52.08;24.60;;;;;;;;;;5083572;28;20044;-70
2021/12/06 03:38:03;;;;;;;50.97;24.13;;;;;;;;;;5081872;28;20562;-70
2021/12/06 03:40:30;;;;;;;54.85;25.35;;;;;;;;;;5080236;28;20119;-69
2021/12/06 03:42:56;;;;;;;58.75;26.30;;;;;;;;;;5082522;28;20055;-70
2021/12/06 03:45:22;;;;;;;60.75;25.55;;;;;;;;;;5083066;28;20561;-70
2021/12/06 03:47:49;;;;;;;52.67;24.60;;;;;;;;;;5079129;28;20051;-70
2021/12/06 03:50:15;;;;;;;53.33;25.45;;;;;;;;;;5080695;28;20720;-70
2021/12/06 03:52:42;;;;;;;58.88;27.15;;;;;;;;;;5081701;28;20274;-69
2021/12/06 03:55:09;;;;;;;58.05;25.98;;;;;;;;;;5080140;28;20063;-69
2021/12/06 03:57:35;;;;;;;57.75;27.65;;;;;;;;;;5080826;28;20040;-70
2021/12/06 04:00:03;;;;;;;58.15;26.58;;;;;;;;;;5081334;28;20048;-70
2021/12/06 04:02:30;;;;;;;50.08;24.73;;;;;;;;;;5082305;28;20130;-69
2021/12/06 04:04:57;;;;;;;57.85;26.65;;;;;;;;;;5066440;28;20058;-70
2021/12/06 04:07:23;;;;;;;57.60;26.75;;;;;;;;;;5066257;28;20070;-70
2021/12/06 04:09:50;;;;;;;64.50;27.25;;;;;;;;;;5067208;28;20058;-70
2021/12/06 04:12:16;;;;;;;56.53;25.35;;;;;;;;;;5072189;28;20045;-70
2021/12/06 04:14:43;;;;;;;52.10;24.98;;;;;;;;;;5068466;28;20429;-70
2021/12/06 04:17:12;;;;;;;53.08;24.85;;;;;;;;;;5065781;28;20055;-69
2021/12/06 04:19:42;;;;;;;54.22;26.02;;;;;;;;;;5074688;28;20151;-71
2021/12/06 04:22:09;;;;;;;51.80;24.80;;;;;;;;;;5070218;28;20040;-70
2021/12/06 04:24:36;;;;;;;55.78;26.60;;;;;;;;;;5067560;28;20503;-70
2021/12/06 04:27:13;;;;;;;54.03;25.92;;;;;;;;;;5067765;28;20401;-69
2021/12/06 04:29:44;;;;;;;54.95;25.65;;;;;;;;;;5068475;28;20246;-70
2021/12/06 04:32:10;;;;;;;58.42;26.75;;;;;;;;;;5058869;28;20053;-70
2021/12/06 04:34:37;;;;;;;61.60;26.98;;;;;;;;;;5067378;28;20056;-70
2021/12/06 04:37:03;;;;;;;58.92;27.40;;;;;;;;;;5068023;28;20040;-70
2021/12/06 04:39:30;;;;;;;62.67;28.00;;;;;;;;;;5068394;28;20052;-70
2021/12/06 04:41:56;;;;;;;57.65;26.50;;;;;;;;;;5067737;28;20049;-70
2021/12/06 04:44:23;;;;;;;70.07;28.05;;;;;;;;;;5068046;28;20044;-70
2021/12/06 04:46:49;;;;;;;59.67;27.05;;;;;;;;;;5070190;28;20049;-70
2021/12/06 04:49:16;;;;;;;60.30;28.02;;;;;;;;;;5084859;28;20058;-70
2021/12/06 04:51:44;;;;;;;58.85;25.92;;;;;;;;;;5067629;28;20055;-70
2021/12/06 04:54:11;;;;;;;57.90;27.33;;;;;;;;;;5068034;28;20044;-69
2021/12/06 04:56:40;;;;;;;59.85;27.88;;;;;;;;;;5068380;28;20052;-70
2021/12/06 04:59:14;;;;;;;56.83;25.85;;;;;;;;;;5081264;28;20071;-70
2021/12/06 05:01:42;;;;;;;58.25;26.27;;;;;;;;;;5060471;28;20048;-69
2021/12/06 05:04:16;;;;;;;63.63;27.43;;;;;;;;;;5067388;28;20055;-68
2021/12/06 05:06:44;;;;;;;61.25;27.52;;;;;;;;;;5066457;28;20044;-69
2021/12/06 05:09:21;;;;;;;60.50;27.52;;;;;;;;;;5067508;28;20129;-69
2021/12/06 05:11:47;;;;;;;57.47;27.13;;;;;;;;;;5067366;28;20060;-69
2021/12/06 05:14:15;;;;;;;60.10;26.70;;;;;;;;;;5068863;28;20429;-69
2021/12/06 05:16:41;;;;;;;61.60;27.38;;;;;;;;;;5067826;28;20052;-69
2021/12/06 05:19:08;;;;;;;65.47;27.27;;;;;;;;;;5067469;28;20047;-69
2021/12/06 05:21:35;;;;;;;60.00;27.10;;;;;;;;;;5067019;28;20041;-69
2021/12/06 05:24:01;;;;;;;60.60;27.40;;;;;;;;;;5067209;28;20040;-69
2021/12/06 05:26:27;;;;;;;60.60;26.95;;;;;;;;;;5067651;28;20131;-69
2021/12/06 05:28:58;;;;;;;51.65;25.83;;;;;;;;;;5075309;28;20052;-69
2021/12/06 05:31:26;;;;;;;65.47;26.90;;;;;;;;;;5067161;28;20421;-69
2021/12/06 05:33:57;;;;;;;52.55;22.52;;;;;;;;;;5082421;28;20051;-69
2021/12/06 05:36:23;;;;;;;57.53;25.95;;;;;;;;;;5067311;28;20048;-69
2021/12/06 05:38:51;;;;;;;53.28;28.30;;;;;;;;;;5066526;28;20548;-69
2021/12/06 05:41:17;;;;;;;59.58;25.33;;;;;;;;;;5067385;28;20056;-70
2021/12/06 05:43:44;;;;;;;65.30;27.63;;;;;;;;;;5066959;28;20044;-69
2021/12/06 05:46:10;;;;;;;55.95;24.90;;;;;;;;;;5068680;28;20054;-69
2021/12/06 05:48:37;;;;;;;55.28;25.65;;;;;;;;;;5069541;28;20056;-69
2021/12/06 05:51:03;;;;;;;59.17;27.13;;;;;;;;;;5067604;28;20044;-69
2021/12/06 05:53:29;;;;;;;65.60;27.50;;;;;;;;;;5066215;28;20049;-69
2021/12/06 05:55:56;;;;;;;59.25;26.33;;;;;;;;;;5074758;28;20052;-69
2021/12/06 05:58:26;;;;;;;55.13;25.00;;;;;;;;;;5067460;28;20048;-69
2021/12/06 06:00:53;;;;;;;54.47;25.75;;;;;;;;;;5069753;28;20051;-69
2021/12/06 06:03:20;;;;;;;62.97;25.88;;;;;;;;;;5066654;28;20132;-69
2021/12/06 06:05:46;;;;;;;62.40;26.95;;;;;;;;;;5066863;28;20117;-69
2021/12/06 06:08:13;;;;;;;59.75;26.05;;;;;;;;;;5071297;28;20607;-70
2021/12/06 06:10:40;;;;;;;56.67;25.52;;;;;;;;;;5072717;28;20052;-70
2021/12/06 06:13:07;;;;;;;63.55;26.40;;;;;;;;;;5075228;28;20071;-69
2021/12/06 06:15:33;;;;;;;57.05;25.55;;;;;;;;;;5070995;28;20059;-69
2021/12/06 06:18:00;;;;;;;59.83;24.42;;;;;;;;;;5066510;28;20055;-69
2021/12/06 06:20:35;;;;;;;53.78;23.33;;;;;;;;;;5068396;28;20067;-69
2021/12/06 06:23:02;;;;;;;54.92;25.27;;;;;;;;;;5069913;28;20041;-69
2021/12/06 06:25:29;;;;;;;53.78;25.13;;;;;;;;;;5054440;28;20044;-69
2021/12/06 06:27:55;;;;;;;51.00;25.55;;;;;;;;;;5066965;28;20053;-70
2021/12/06 06:30:22;;;;;;;54.22;24.33;;;;;;;;;;5070641;28;20045;-69
2021/12/06 06:32:48;;;;;;;52.42;25.00;;;;;;;;;;5070547;28;20127;-69
2021/12/06 06:35:16;;;;;;;54.10;24.88;;;;;;;;;;5067279;28;20492;-69
2021/12/06 06:37:42;;;;;;;51.57;23.30;;;;;;;;;;5066454;28;20111;-69
2021/12/06 06:40:09;;;;;;;51.92;24.48;;;;;;;;;;5066310;28;20049;-69
2021/12/06 06:42:36;;;;;;;55.65;25.52;;;;;;;;;;5068413;28;20158;-69
2021/12/06 06:45:10;;;;;;;51.58;23.65;;;;;;;;;;5066504;28;20068;-69
2021/12/06 06:47:36;;;;;;;49.97;23.83;;;;;;;;;;5060029;28;20056;-69
2021/12/06 06:50:03;;;;;;;48.92;24.80;;;;;;;;;;5052918;28;20047;-69
2021/12/06 06:52:29;;;;;;;47.13;24.58;;;;;;;;;;5073643;28;20051;-68
2021/12/06 06:54:56;;;;;;;50.42;24.27;;;;;;;;;;5069597;28;20055;-69
2021/12/06 06:57:22;;;;;;;50.67;24.60;;;;;;;;;;5066639;28;20071;-69
2021/12/06 06:59:49;;;;;;;49.33;23.98;;;;;;;;;;5057106;28;20047;-69
2021/12/06 07:02:15;;;;;;;50.92;23.55;;;;;;;;;;5068703;28;20704;-69
2021/12/06 07:04:42;;;;;;;44.22;22.67;;;;;;;;;;5050965;28;20153;-69
2021/12/06 07:07:08;;;;;;;49.50;22.83;;;;;;;;;;5066684;28;20051;-69
2021/12/06 07:09:35;;;;;;;47.10;23.90;;;;;;;;;;5070299;28;20047;-69
2021/12/06 07:12:02;;;;;;;47.97;23.20;;;;;;;;;;5074050;28;20056;-69
2021/12/06 07:14:28;;;;;;;44.08;22.38;;;;;;;;;;5085763;28;20043;-69
2021/12/06 07:16:54;;;;;;;43.88;22.40;;;;;;;;;;5070386;28;20048;-69
2021/12/06 07:19:21;;;;;;;48.63;24.88;;;;;;;;;;5074690;28;20048;-69
2021/12/06 07:21:55;;;;;;;56.03;25.98;;;;;;;;;;5066342;28;20547;-69
2021/12/06 07:24:21;;;;;;;44.65;23.65;;;;;;;;;;5066293;28;20049;-69
2021/12/06 07:26:48;;;;;;;48.25;23.90;;;;;;;;;;5066095;28;20052;-69
2021/12/06 07:29:14;;;;;;;44.60;22.83;;;;;;;;;;5066590;28;20048;-69
2021/12/06 07:31:40;;;;;;;47.40;23.35;;;;;;;;;;5065880;28;20059;-69
2021/12/06 07:34:07;;;;;;;36.47;20.27;;;;;;;;;;5065851;28;20044;-69
2021/12/06 07:36:33;;;;;;;46.20;22.58;;;;;;;;;;5074663;28;20071;-69
2021/12/06 07:38:59;;;;;;;48.85;21.73;;;;;;;;;;5074535;28;20056;-69
2021/12/06 07:41:28;;;;;;;43.22;21.48;;;;;;;;;;5074659;28;20036;-69
2021/12/06 07:43:56;;;;;;;46.70;23.92;;;;;;;;;;5066574;28;20051;-69
2021/12/06 07:46:22;;;;;;;50.00;22.83;;;;;;;;;;5067747;28;20477;-69
2021/12/06 07:48:52;;;;;;;52.03;24.90;;;;;;;;;;5074125;28;20051;-70
2021/12/06 07:51:19;;;;;;;45.53;23.42;;;;;;;;;;5065806;28;20475;-70
2021/12/06 07:53:46;;;;;;;52.75;24.55;;;;;;;;;;5072253;28;20055;-69
2021/12/06 07:56:12;;;;;;;48.33;25.10;;;;;;;;;;5077331;28;20707;-69
2021/12/06 07:58:38;;;;;;;53.35;24.52;;;;;;;;;;5086877;28;20056;-69
2021/12/06 08:01:05;;;;;;;43.42;22.42;;;;;;;;;;5070393;28;20051;-69
2021/12/06 08:03:32;;;;;;;44.42;23.35;;;;;;;;;;5070309;28;20104;-69
2021/12/06 08:06:00;;;;;;;44.53;21.58;;;;;;;;;;5057750;28;20040;-69
2021/12/06 08:08:28;;;;;;;43.28;20.23;;;;;;;;;;5077187;28;20049;-69
2021/12/06 08:10:56;;;;;;;41.33;21.63;;;;;;;;;;5074893;28;20044;-69
2021/12/06 08:13:24;;;;;;;39.00;20.73;;;;;;;;;;5075174;28;20487;-69
2021/12/06 08:15:52;;;;;;;35.05;18.67;;;;;;;;;;5074314;28;20053;-69
2021/12/06 08:18:19;;;;;;;32.58;19.17;;;;;;;;;;5070677;28;20436;-70
2021/12/06 08:20:46;;;;;;;38.08;18.98;;;;;;;;;;5078538;28;20054;-70
2021/12/06 08:23:13;;;;;;;34.92;18.92;;;;;;;;;;5070057;28;20040;-70
2021/12/06 08:25:40;;;;;;;34.03;18.38;;;;;;;;;;5070833;28;20583;-70
2021/12/06 08:28:06;;;;;;;34.75;19.80;;;;;;;;;;5072473;28;20045;-69
2021/12/06 08:30:34;;;;;;;35.30;19.02;;;;;;;;;;5069468;28;20163;-69
2021/12/06 08:33:02;;;;;;;38.35;19.13;;;;;;;;;;5071466;28;20583;-69
2021/12/06 08:35:33;;;;;;;33.38;18.58;;;;;;;;;;5077745;28;20052;-69
2021/12/06 08:38:00;;;;;;;38.78;19.75;;;;;;;;;;5078541;28;20041;-69
2021/12/06 08:40:27;;;;;;;39.42;19.10;;;;;;;;;;5069232;28;20040;-69
2021/12/06 08:42:54;;;;;;;38.58;19.95;;;;;;;;;;5053377;28;20064;-70
2021/12/06 08:45:20;;;;;;;38.67;18.98;;;;;;;;;;5071016;28;20037;-69
2021/12/06 08:47:46;;;;;;;34.05;19.70;;;;;;;;;;5075572;28;20055;-70
2021/12/06 08:50:15;;;;;;;32.22;18.23;;;;;;;;;;5079565;28;20044;-70
2021/12/06 08:52:42;;;;;;;29.38;17.20;;;;;;;;;;5073148;28;20144;-69
2021/12/06 08:55:09;;;;;;;33.47;18.25;;;;;;;;;;5068899;28;20061;-69
2021/12/06 08:57:35;;;;;;;31.55;18.58;;;;;;;;;;5069476;28;20052;-70
2021/12/06 09:00:06;;;;;;;35.35;18.75;;;;;;;;;;5079917;28;20051;-70
2021/12/06 09:02:32;;;;;;;31.92;19.55;;;;;;;;;;5069317;28;20500;-70
2021/12/06 09:05:19;;;;;;;33.13;19.55;;;;;;;;;;5067767;28;20056;-70
2021/12/06 09:07:47;;;;;;;32.80;18.40;;;;;;;;;;5069632;28;20494;-69
2021/12/06 09:10:14;;;;;;;35.47;18.65;;;;;;;;;;5069957;28;20059;-70
2021/12/06 09:12:40;;;;;;;33.53;17.95;;;;;;;;;;5069452;28;20504;-70
2021/12/06 09:15:08;;;;;;;31.98;18.05;;;;;;;;;;5074842;28;20048;-70
2021/12/06 09:17:35;;;;;;;37.35;20.00;;;;;;;;;;5068141;28;20079;-70
2021/12/06 09:20:03;;;;;;;29.25;16.80;;;;;;;;;;5067943;28;20349;-70
2021/12/06 09:22:29;;;;;;;42.55;18.92;;;;;;;;;;5068173;28;20045;-70
2021/12/06 09:24:55;;;;;;;37.72;19.48;;;;;;;;;;5068246;28;20045;-69
2021/12/06 09:27:23;;;;;;;35.50;20.13;;;;;;;;;;5076780;28;20037;-70
2021/12/06 09:29:49;;;;;;;36.28;20.45;;;;;;;;;;5069214;28;20048;-70
2021/12/06 09:32:17;;;;;;;36.88;20.90;;;;;;;;;;5068803;28;20063;-69
2021/12/06 09:34:46;;;;;;;40.33;20.65;;;;;;;;;;5068020;28;20048;-70
2021/12/06 09:37:13;;;;;;;39.03;19.65;;;;;;;;;;5068068;28;20053;-70
2021/12/06 09:39:39;;;;;;;36.10;19.67;;;;;;;;;;5072633;28;20091;-70
2021/12/06 09:42:06;;;;;;;40.17;19.90;;;;;;;;;;5071062;28;20078;-70
2021/12/06 09:44:33;;;;;;;39.50;19.83;;;;;;;;;;5065492;28;20044;-70
2021/12/06 09:46:59;;;;;;;41.60;21.13;;;;;;;;;;5074786;28;20044;-70
2021/12/06 09:49:26;;;;;;;41.30;21.20;;;;;;;;;;5068186;28;20425;-70
2021/12/06 09:51:58;;;;;;;33.15;19.00;;;;;;;;;;5067617;28;20131;-70
2021/12/06 09:54:27;;;;;;;33.13;19.33;;;;;;;;;;5070917;28;20079;-70
2021/12/06 09:56:54;;;;;;;38.33;20.48;;;;;;;;;;5072714;28;20076;-70
2021/12/06 09:59:23;;;;;;;50.08;19.60;;;;;;;;;;5078413;28;20049;-70
2021/12/06 10:01:52;;;;;;;35.08;19.45;;;;;;;;;;5068073;28;20040;-70
2021/12/06 10:04:19;;;;;;;35.45;19.48;;;;;;;;;;5078092;28;20131;-70
2021/12/06 10:06:47;;;;;;;36.03;20.20;;;;;;;;;;5066759;28;20036;-71
2021/12/06 10:09:14;;;;;;;35.38;19.70;;;;;;;;;;5048982;28;20051;-70
2021/12/06 10:11:40;;;;;;;31.25;17.73;;;;;;;;;;5069861;28;20079;-70
2021/12/06 10:14:07;;;;;;;36.42;20.63;;;;;;;;;;5071484;28;20051;-70
2021/12/06 10:16:34;;;;;;;35.40;20.10;;;;;;;;;;5073609;28;20143;-71
2021/12/06 10:19:01;;;;;;;47.38;21.98;;;;;;;;;;5066823;28;20042;-70
2021/12/06 10:21:27;;;;;;;39.85;21.98;;;;;;;;;;5066635;28;20047;-70
2021/12/06 10:23:55;;;;;;;38.13;20.33;;;;;;;;;;5066705;28;20143;-70
2021/12/06 10:26:24;;;;;;;38.73;21.13;;;;;;;;;;5067391;28;20044;-70
2021/12/06 10:28:54;;;;;;;41.63;20.88;;;;;;;;;;5066632;28;20935;-70
2021/12/06 10:31:21;;;;;;;36.28;20.08;;;;;;;;;;5067269;28;20036;-70
2021/12/06 10:33:47;;;;;;;43.45;22.55;;;;;;;;;;5066333;28;20052;-70
2021/12/06 10:36:16;;;;;;;39.30;22.65;;;;;;;;;;5066652;28;20054;-70
2021/12/06 10:38:47;;;;;;;45.20;23.13;;;;;;;;;;5065455;28;20537;-70
2021/12/06 10:41:15;;;;;;;42.35;23.00;;;;;;;;;;5072594;28;20076;-70
2021/12/06 10:43:50;;;;;;;45.17;22.58;;;;;;;;;;5067374;28;20074;-70
2021/12/06 10:46:17;;;;;;;42.55;23.63;;;;;;;;;;5069923;28;20041;-70
2021/12/06 10:48:43;;;;;;;46.70;25.33;;;;;;;;;;5068139;28;20060;-70
2021/12/06 10:51:12;;;;;;;49.65;25.08;;;;;;;;;;5066295;28;20059;-70
2021/12/06 10:53:42;;;;;;;;;;;;;;;;;;5066512;28;20059;-70
2021/12/06 10:56:18;;;;;;;33.42;20.33;;;;;;;;;;5048544;28;19926;-69
2021/12/06 10:58:45;;;;;;;34.05;20.80;;;;;;;;;;5059180;28;20394;-70
2021/12/06 11:01:13;;;;;;;37.60;22.27;;;;;;;;;;5051844;28;20555;-70
2021/12/06 11:03:45;;;;;;;37.75;20.15;;;;;;;;;;5077972;28;20040;-70
2021/12/06 11:06:16;;;;;;;34.80;20.30;;;;;;;;;;5071226;28;20045;-70
2021/12/06 11:08:42;;;;;;;32.13;19.63;;;;;;;;;;5065866;28;20510;-70
2021/12/06 11:11:14;;;;;;;30.63;18.92;;;;;;;;;;5073499;28;20052;-69
2021/12/06 11:13:45;;;;;;;34.15;20.55;;;;;;;;;;5061703;28;20056;-70
2021/12/06 11:16:20;;;;;;;42.25;22.02;;;;;;;;;;5069938;28;20048;-70
2021/12/06 11:18:54;;;;;;;40.60;21.80;;;;;;;;;;5077585;28;20131;-70
2021/12/06 11:21:33;;;;;;;34.17;19.75;;;;;;;;;;5074061;28;20051;-70
2021/12/06 11:24:05;;;;;;;38.58;22.10;;;;;;;;;;5066126;28;20055;-70
2021/12/06 11:26:32;;;;;;;41.35;22.33;;;;;;;;;;5066274;28;20056;-70
2021/12/06 11:29:09;;;;;;;46.15;22.65;;;;;;;;;;5065542;28;20071;-69
2021/12/06 11:31:37;;;;;;;43.08;20.45;;;;;;;;;;5065346;28;20048;-70
2021/12/06 11:34:04;;;;;;;39.08;18.73;;;;;;;;;;5067900;28;20048;-69
2021/12/06 11:36:31;;;;;;;41.00;20.08;;;;;;;;;;5071090;28;20280;-69
2021/12/06 11:39:00;;;;;;;40.58;20.17;;;;;;;;;;5065095;28;20398;-69
2021/12/06 11:41:26;;;;;;;39.38;19.17;;;;;;;;;;5065729;28;20512;-69
2021/12/06 11:43:53;;;;;;;43.47;19.58;;;;;;;;;;5065272;28;20644;-70
2021/12/06 11:46:27;;;;;;;40.55;19.98;;;;;;;;;;5069457;28;20079;-70
2021/12/06 11:48:53;;;;;;;37.80;18.95;;;;;;;;;;5079361;28;20101;-70
2021/12/06 11:51:20;;;;;;;42.55;20.30;;;;;;;;;;5065023;28;20052;-70
2021/12/06 11:53:49;;;;;;;45.08;20.75;;;;;;;;;;5065182;28;20048;-70
2021/12/06 11:56:19;;;;;;;41.53;20.20;;;;;;;;;;5068628;28;20048;-70
2021/12/06 11:58:47;;;;;;;45.13;21.17;;;;;;;;;;5078477;28;20059;-70
2021/12/06 12:01:16;;;;;;;49.20;21.40;;;;;;;;;;5082587;28;20058;-69
2021/12/06 12:03:44;;;;;;;49.08;22.35;;;;;;;;;;5064408;28;20292;-69
2021/12/06 12:06:21;;;;;;;42.05;20.48;;;;;;;;;;5065071;28;20525;-69
2021/12/06 12:08:47;;;;;;;41.58;19.60;;;;;;;;;;5065261;28;20405;-69
2021/12/06 12:11:14;;;;;;;40.80;19.92;;;;;;;;;;5078749;28;20075;-69
2021/12/06 12:13:42;;;;;;;36.70;18.38;;;;;;;;;;5071192;28;20060;-70
2021/12/06 12:16:09;;;;;;;;;;;;;;;;;;5072799;28;20058;-70
2021/12/06 12:18:37;;;;;;;34.22;16.77;;;;;;;;;;5064669;28;19928;-70
2021/12/06 12:21:04;;;;;;;43.22;18.25;;;;;;;;;;5074318;28;20044;-70
2021/12/06 12:23:32;;;;;;;26.27;12.75;;;;;;;;;;5068367;28;20044;-70
2021/12/06 12:26:05;;;;;;;32.13;17.33;;;;;;;;;;5077754;28;20106;-70
2021/12/06 12:28:40;;;;;;;33.95;16.50;;;;;;;;;;5055272;28;20045;-70
2021/12/06 12:31:08;;;;;;;32.75;16.05;;;;;;;;;;5069533;28;20588;-70
2021/12/06 12:33:35;;;;;;;34.25;17.63;;;;;;;;;;5064224;28;20053;-70
2021/12/06 12:36:07;;;;;;;35.65;17.80;;;;;;;;;;5078981;28;20052;-69
2021/12/06 12:38:34;;;;;;;40.22;19.17;;;;;;;;;;5074484;28;20094;-70
2021/12/06 12:41:03;;;;;;;35.25;17.92;;;;;;;;;;5068095;28;20054;-69
2021/12/06 12:43:29;;;;;;;;;;;;;;;;;;5070995;28;20068;-69
2021/12/06 12:45:56;;;;;;;34.72;17.13;;;;;;;;;;5074995;28;19971;-69
2021/12/06 12:48:25;;;;;;;34.85;17.83;;;;;;;;;;5071048;28;20037;-70
2021/12/06 12:51:01;;;;;;;33.67;17.58;;;;;;;;;;5068328;28;20049;-70
2021/12/06 12:53:27;;;;;;;34.10;16.88;;;;;;;;;;5077349;28;20381;-69
2021/12/06 12:55:54;;;;;;;32.85;16.98;;;;;;;;;;5068222;28;20106;-69
2021/12/06 12:58:23;;;;;;;28.60;15.57;;;;;;;;;;5083457;28;20051;-69
2021/12/06 13:00:57;;;;;;;33.40;16.75;;;;;;;;;;5068275;28;20725;-71
2021/12/06 13:03:36;;;;;;;30.35;17.20;;;;;;;;;;5068288;28;20095;-69
2021/12/06 13:06:21;;;;;;;34.90;17.42;;;;;;;;;;5068403;28;20401;-69
2021/12/06 13:09:17;;;;;;;29.25;15.95;;;;;;;;;;5068401;28;20059;-69
2021/12/06 13:11:45;;;;;;;33.17;16.02;;;;;;;;;;5022719;28;20515;-69
2021/12/06 13:14:27;;;;;;;31.90;16.80;;;;;;;;;;5068337;28;20855;-70
2021/12/06 13:17:02;;;;;;;29.33;16.23;;;;;;;;;;5066765;28;20098;-69
2021/12/06 13:19:44;;;;;;;32.05;17.92;;;;;;;;;;5067234;28;20044;-70
2021/12/06 13:22:15;;;;;;;34.17;17.63;;;;;;;;;;5050228;28;20049;-70
2021/12/06 13:24:45;;;;;;;34.13;18.23;;;;;;;;;;5067564;28;20638;-70
2021/12/06 13:27:17;;;;;;;31.00;16.70;;;;;;;;;;5072324;28;20052;-70
2021/12/06 13:29:48;;;;;;;37.50;18.58;;;;;;;;;;5068842;28;20059;-70
2021/12/06 13:32:34;;;;;;;41.17;20.20;;;;;;;;;;5075791;28;20149;-70
2021/12/06 13:35:18;;;;;;;40.60;20.13;;;;;;;;;;5077160;28;20044;-70
2021/12/06 13:37:58;;;;;;;35.38;18.10;;;;;;;;;;5069198;28;20049;-69
2021/12/06 13:40:24;;;;;;;31.23;15.68;;;;;;;;;;5067292;28;20045;-69
2021/12/06 13:42:51;;;;;;;28.27;14.85;;;;;;;;;;5066907;28;20041;-69
2021/12/06 13:45:21;;;;;;;22.23;12.77;;;;;;;;;;5067529;28;20393;-69
2021/12/06 13:48:06;;;;;;;23.88;13.80;;;;;;;;;;5057268;28;20071;-69
2021/12/06 13:50:33;;;;;;;27.92;15.10;;;;;;;;;;5065655;28;20049;-69
2021/12/06 13:52:59;;;;;;;30.33;16.10;;;;;;;;;;5067196;28;20057;-69
2021/12/06 13:55:28;;;;;;;26.98;15.13;;;;;;;;;;5067587;28;20044;-69
2021/12/06 13:57:59;;;;;;;28.15;14.63;;;;;;;;;;5070555;28;20056;-69
2021/12/06 14:00:29;;;;;;;32.28;16.52;;;;;;;;;;5070242;28;20041;-69
2021/12/06 14:02:57;;;;;;;28.40;16.55;;;;;;;;;;5076051;28;20036;-69
2021/12/06 14:05:25;;;;;;;25.08;13.25;;;;;;;;;;5049461;28;20383;-69
2021/12/06 14:07:51;;;;;;;29.90;15.43;;;;;;;;;;5075686;28;20045;-69
2021/12/06 14:10:18;;;;;;;30.42;15.82;;;;;;;;;;5057522;28;20048;-69
2021/12/06 14:12:44;;;;;;;29.17;14.68;;;;;;;;;;5076007;28;20049;-69
2021/12/06 14:18:05;;;;;;;26.33;15.00;;;;;;;;;;5042733;28;20044;-69
2021/12/06 14:20:32;;;;;;;30.65;14.65;;;;;;;;;;5073132;28;20440;-69
2021/12/06 14:22:58;;;;;;;30.63;15.80;;;;;;;;;;5073533;28;20056;-69
2021/12/06 14:25:25;;;;;;;28.45;14.18;;;;;;;;;;5076281;28;20047;-69
2021/12/06 14:27:51;;;;;;;26.13;14.38;;;;;;;;;;5072890;28;20047;-69
2021/12/06 14:30:19;;;;;;;27.42;13.93;;;;;;;;;;5070703;28;20049;-70
2021/12/06 14:32:47;;;;;;;26.98;14.88;;;;;;;;;;5066675;28;20045;-68
2021/12/06 14:35:14;;;;;;;24.97;14.17;;;;;;;;;;5068822;28;20078;-69
2021/12/06 14:37:41;;;;;;;24.42;12.57;;;;;;;;;;5072160;28;20044;-69
2021/12/06 14:40:08;;;;;;;26.30;13.40;;;;;;;;;;5052989;28;20056;-69
2021/12/06 14:42:34;;;;;;;30.90;14.95;;;;;;;;;;5071173;28;20335;-69